Time;durP1;ratioP1;P1;durP2;ratioP2;P2;SDS_P1;SDS_P2;PMS_P1;PMS_P2;Temp;Humidity;BMP_temperature;BMP_pressure;BME280_temperature;BME280_humidity;BME280_pressure;Samples;Min_cycle;Max_cycle;Signal;HPM_P1;HPM_P2
2024/04/14 00:01:21;;;;;;;5.10;3.22;;;;;;;14.16;67.51;100489.08;1782554;80;20979;-76
2024/04/14 00:03:56;;;;;;;6.92;3.42;;;;;;;14.13;67.45;100481.25;1782512;80;21090;-74
2024/04/14 00:06:26;;;;;;;5.60;3.27;;;;;;;14.11;67.44;100478.72;1782490;80;21093;-74
2024/04/14 00:08:55;;;;;;;4.62;3.35;;;;;;;14.12;67.36;100479.03;1782512;80;21399;-75
2024/04/14 00:11:23;;;;;;;4.40;3.05;;;;;;;14.11;67.40;100483.38;1761410;80;21023;-76
2024/04/14 00:13:52;;;;;;;4.17;2.80;;;;;;;14.10;67.21;100483.06;1782699;80;21082;-77
2024/04/14 00:16:21;;;;;;;4.67;2.90;;;;;;;14.06;67.17;100488.70;1782709;80;20995;-75
2024/04/14 00:18:49;;;;;;;6.40;2.98;;;;;;;14.06;66.96;100494.21;1782791;80;21050;-76
2024/04/14 00:21:22;;;;;;;5.95;2.80;;;;;;;14.05;66.89;100493.37;1782537;80;20995;-74
2024/04/14 00:23:51;;;;;;;4.55;2.70;;;;;;;14.03;66.54;100496.03;1782548;80;21003;-76
2024/04/14 00:26:19;;;;;;;4.35;2.30;;;;;;;14.00;66.34;100495.93;1782525;80;21439;-75
2024/04/14 00:28:49;;;;;;;3.17;2.40;;;;;;;13.98;66.02;100492.55;1782687;80;21042;-75
2024/04/14 00:31:18;;;;;;;3.47;2.35;;;;;;;13.94;65.74;100492.14;1782523;80;21435;-75
2024/04/14 00:33:46;;;;;;;2.62;2.30;;;;;;;13.92;65.37;100493.42;1782627;80;20987;-75
2024/04/14 00:36:15;;;;;;;3.67;2.02;;;;;;;13.88;65.12;100499.05;1782635;80;20995;-77
2024/04/14 00:38:43;;;;;;;3.75;2.30;;;;;;;13.87;64.81;100495.98;1760305;80;21078;-72
2024/04/14 00:41:11;;;;;;;4.15;1.80;;;;;;;13.83;64.52;100496.09;1752596;82;21011;-76
2024/04/14 00:43:39;;;;;;;2.70;1.87;;;;;;;13.82;64.18;100491.13;1752556;82;21532;-77
2024/04/14 00:46:08;;;;;;;3.92;1.90;;;;;;;13.82;63.78;100494.41;1752630;82;21014;-75
2024/04/14 00:48:36;;;;;;;6.00;2.00;;;;;;;13.79;63.61;100488.80;1752807;82;21038;-75
2024/04/14 00:51:05;;;;;;;2.08;1.65;;;;;;;13.77;63.39;100493.68;1752564;82;21579;-75
2024/04/14 00:53:33;;;;;;;4.67;2.37;;;;;;;13.76;63.38;100485.63;1752629;81;21015;-74
2024/04/14 00:56:02;;;;;;;2.85;1.95;;;;;;;13.76;63.23;100480.13;1752499;82;21078;-74
2024/04/14 00:58:30;;;;;;;3.12;1.90;;;;;;;13.75;63.16;100484.78;1752732;82;21031;-74
2024/04/14 01:00:59;;;;;;;2.67;1.70;;;;;;;13.76;63.09;100488.39;1752846;82;21067;-75
2024/04/14 01:03:27;;;;;;;2.98;1.80;;;;;;;13.77;63.08;100491.45;1752565;82;21490;-74
2024/04/14 01:05:57;;;;;;;2.62;1.87;;;;;;;13.76;63.07;100487.01;1752888;80;21457;-75
2024/04/14 01:08:25;;;;;;;4.03;2.20;;;;;;;13.76;63.04;100489.77;1752534;82;21078;-77
2024/04/14 01:10:54;;;;;;;3.35;2.20;;;;;;;13.75;62.94;100483.94;1752741;82;21003;-76
2024/04/14 01:13:22;;;;;;;3.40;2.00;;;;;;;13.70;62.95;100483.22;1752684;80;21038;-75
2024/04/14 01:15:51;;;;;;;3.45;1.90;;;;;;;13.68;63.05;100483.11;1752669;80;21026;-75
2024/04/14 01:18:19;;;;;;;3.50;1.80;;;;;;;13.67;63.05;100482.80;1752573;82;21068;-75
2024/04/14 01:20:48;;;;;;;3.58;2.27;;;;;;;13.60;63.08;100478.66;1752837;82;21011;-74
2024/04/14 01:23:17;;;;;;;2.98;2.30;;;;;;;13.56;63.24;100481.52;1752438;82;21074;-74
2024/04/14 01:25:46;;;;;;;3.58;2.40;;;;;;;13.53;63.35;100478.67;1752636;82;21054;-76
2024/04/14 01:28:16;;;;;;;4.70;2.22;;;;;;;13.51;63.49;100481.33;1752654;80;21078;-75
2024/04/14 01:30:45;;;;;;;4.22;2.30;;;;;;;13.50;63.71;100492.02;1752787;80;21454;-72
2024/04/14 01:33:13;;;;;;;4.28;2.50;;;;;;;13.48;63.89;100486.73;1752560;82;21034;-76
2024/04/14 01:35:43;;;;;;;3.17;2.45;;;;;;;13.47;64.10;100486.41;1752771;80;21061;-76
2024/04/14 01:38:12;;;;;;;5.10;2.87;;;;;;;13.45;64.38;100492.66;1751655;80;21046;-74
2024/04/14 01:40:42;;;;;;;4.33;2.62;;;;;;;13.46;64.53;100490.76;1748561;82;21043;-76
2024/04/14 01:43:10;;;;;;;6.12;3.22;;;;;;;13.46;64.74;100490.23;1750022;80;21051;-76
2024/04/14 01:45:38;;;;;;;4.87;2.90;;;;;;;13.46;64.94;100488.00;1749968;81;21067;-74
2024/04/14 01:48:07;;;;;;;3.85;2.80;;;;;;;13.42;65.16;100479.33;1729543;81;21055;-75
2024/04/14 01:50:37;;;;;;;4.33;2.60;;;;;;;13.40;65.41;100481.45;1749918;82;21508;-76
2024/04/14 01:53:05;;;;;;;5.53;2.60;;;;;;;13.41;65.58;100481.77;1750073;81;21463;-75
2024/04/14 01:55:33;;;;;;;3.55;2.67;;;;;;;13.42;65.65;100486.21;1749916;82;21481;-74
2024/04/14 01:58:02;;;;;;;5.15;2.95;;;;;;;13.41;65.69;100483.67;1749961;82;21043;-76
2024/04/14 02:00:30;;;;;;;5.15;3.08;;;;;;;13.40;65.78;100486.95;1749998;81;21047;-75
2024/04/14 02:03:00;;;;;;;5.90;3.02;;;;;;;13.39;65.87;100494.89;1750182;81;21066;-76
2024/04/14 02:05:29;;;;;;;5.28;3.08;;;;;;;13.35;65.95;100503.27;1750091;80;21027;-74
2024/04/14 02:07:58;;;;;;;4.05;2.80;;;;;;;13.29;66.14;100499.98;1750118;81;21483;-74
2024/04/14 02:10:27;;;;;;;3.92;2.65;;;;;;;13.28;66.26;100512.05;1750242;81;21035;-73
2024/04/14 02:12:55;;;;;;;3.92;2.75;;;;;;;13.25;66.40;100512.48;1750266;82;21095;-75
2024/04/14 02:15:24;;;;;;;4.20;2.70;;;;;;;13.22;66.45;100512.91;1750277;82;21044;-74
2024/04/14 02:17:52;;;;;;;5.92;2.55;;;;;;;13.18;66.42;100519.89;1750276;80;21074;-74
2024/04/14 02:20:22;;;;;;;3.80;2.90;;;;;;;13.17;66.46;100520.95;1750131;81;21090;-75
2024/04/14 02:22:50;;;;;;;4.78;2.92;;;;;;;13.18;66.49;100521.27;1750081;81;21039;-74
2024/04/14 02:25:19;;;;;;;4.55;2.65;;;;;;;13.15;66.48;100521.66;1750187;82;21038;-74
2024/04/14 02:27:47;;;;;;;4.50;2.90;;;;;;;13.09;66.49;100519.75;1750139;81;21049;-75
2024/04/14 02:30:16;;;;;;;4.55;2.70;;;;;;;13.06;66.68;100507.27;1750065;81;21086;-75
2024/04/14 02:32:45;;;;;;;3.87;2.67;;;;;;;13.04;66.49;100505.78;1750198;82;21026;-75
2024/04/14 02:35:13;;;;;;;3.15;2.58;;;;;;;12.96;66.56;100507.66;1750080;81;21062;-76
2024/04/14 02:37:41;;;;;;;4.62;2.50;;;;;;;12.94;66.68;100514.42;1749776;81;21015;-73
2024/04/14 02:40:11;;;;;;;5.12;2.83;;;;;;;12.91;66.71;100517.06;1773619;81;21523;-74
2024/04/14 02:42:39;;;;;;;4.78;2.47;;;;;;;12.90;66.80;100503.00;1773935;81;20968;-76
2024/04/14 02:45:07;;;;;;;6.62;2.80;;;;;;;12.88;66.71;100503.73;1773795;81;21023;-76
2024/04/14 02:47:36;;;;;;;5.42;2.90;;;;;;;12.85;66.73;100494.53;1773778;81;21383;-75
2024/04/14 02:50:07;;;;;;;8.00;2.70;;;;;;;12.84;66.79;100489.24;1773749;80;21027;-75
2024/04/14 02:52:35;;;;;;;6.45;2.60;;;;;;;12.83;66.87;100492.52;1773700;81;21074;-75
2024/04/14 02:55:06;;;;;;;3.58;2.58;;;;;;;12.83;66.87;100491.67;1773889;81;20995;-75
2024/04/14 02:57:35;;;;;;;6.20;2.17;;;;;;;12.84;66.92;100480.47;1773830;81;20980;-74
2024/04/14 03:00:04;;;;;;;4.40;2.95;;;;;;;12.81;66.87;100472.64;1773697;81;20976;-70
2024/04/14 03:02:34;;;;;;;3.22;2.42;;;;;;;12.79;66.96;100468.41;1774018;81;20999;-75
2024/04/14 03:05:02;;;;;;;5.78;2.50;;;;;;;12.75;67.05;100474.01;1773640;81;21034;-75
2024/04/14 03:07:31;;;;;;;4.20;2.60;;;;;;;12.69;67.22;100470.19;1773859;81;21030;-73
2024/04/14 03:09:59;;;;;;;3.83;2.40;;;;;;;12.65;67.44;100478.55;1773929;81;20995;-74
2024/04/14 03:12:29;;;;;;;4.37;2.00;;;;;;;12.60;67.69;100479.17;1773981;81;21020;-74
2024/04/14 03:14:58;;;;;;;4.78;2.90;;;;;;;12.54;67.94;100475.04;1773775;81;21399;-75
2024/04/14 03:17:26;;;;;;;3.58;2.40;;;;;;;12.50;68.17;100471.02;1773787;81;21074;-73
2024/04/14 03:19:55;;;;;;;4.17;2.40;;;;;;;12.48;68.21;100476.72;1773695;81;21028;-73
2024/04/14 03:22:24;;;;;;;3.15;2.17;;;;;;;12.43;68.32;100481.14;1773724;81;21015;-75
2024/04/14 03:24:52;;;;;;;4.70;2.35;;;;;;;12.36;68.49;100481.98;1773843;81;21003;-74
2024/04/14 03:27:21;;;;;;;5.87;2.60;;;;;;;12.28;68.73;100486.78;1773955;81;21015;-75
2024/04/14 03:29:49;;;;;;;4.45;2.50;;;;;;;12.20;68.93;100488.34;1773978;81;21023;-75
2024/04/14 03:32:18;;;;;;;7.05;2.90;;;;;;;12.14;69.31;100485.89;1773790;81;21043;-76
2024/04/14 03:34:46;;;;;;;4.30;2.60;;;;;;;12.13;69.49;100485.58;1773832;80;20979;-74
2024/04/14 03:37:16;;;;;;;3.40;2.55;;;;;;;12.12;69.73;100487.15;1773815;81;21395;-73
2024/04/14 03:39:45;;;;;;;6.10;2.52;;;;;;;12.04;69.91;100488.17;1780317;80;21073;-73
2024/04/14 03:42:14;;;;;;;4.80;2.90;;;;;;;11.97;70.27;100494.17;1782510;80;21434;-75
2024/04/14 03:44:44;;;;;;;6.08;3.30;;;;;;;11.92;70.56;100486.55;1782397;80;21203;-75
2024/04/14 03:47:12;;;;;;;3.62;2.83;;;;;;;11.94;70.94;100484.97;1782635;80;21022;-73
2024/04/14 03:49:41;;;;;;;6.33;3.15;;;;;;;11.96;71.02;100489.20;1782329;80;21026;-72
2024/04/14 03:52:11;;;;;;;5.70;2.85;;;;;;;12.00;71.01;100489.64;1782328;80;20990;-74
2024/04/14 03:54:39;;;;;;;5.20;2.80;;;;;;;12.02;71.00;100486.16;1782535;80;21018;-75
2024/04/14 03:57:09;;;;;;;5.00;2.98;;;;;;;12.03;70.91;100479.62;1782352;80;21430;-74
2024/04/14 03:59:38;;;;;;;6.60;3.70;;;;;;;12.04;70.90;100482.69;1782724;80;20998;-73
2024/04/14 04:02:08;;;;;;;7.58;3.22;;;;;;;12.06;71.07;100481.95;1782351;80;21003;-75
2024/04/14 04:04:36;;;;;;;5.05;3.25;;;;;;;12.11;71.09;100476.69;1782363;80;21014;-75
2024/04/14 04:07:05;;;;;;;4.75;3.47;;;;;;;12.14;71.09;100477.66;1782282;80;21426;-75
2024/04/14 04:09:33;;;;;;;4.03;3.20;;;;;;;12.19;71.07;100470.16;1782698;80;21470;-75
2024/04/14 04:12:04;;;;;;;5.50;3.17;;;;;;;12.22;70.96;100480.22;1782534;80;21017;-75
2024/04/14 04:14:34;;;;;;;4.92;2.95;;;;;;;12.28;70.90;100484.87;1782543;80;21034;-74
2024/04/14 04:17:04;;;;;;;5.83;3.10;;;;;;;12.32;70.49;100488.06;1782555;80;21023;-75
2024/04/14 04:19:32;;;;;;;6.08;3.20;;;;;;;12.33;70.42;100482.36;1782495;80;21019;-75
2024/04/14 04:22:01;;;;;;;6.55;3.05;;;;;;;12.36;70.36;100479.23;1782451;80;20987;-74
2024/04/14 04:24:30;;;;;;;4.78;3.17;;;;;;;12.42;70.30;100483.05;1782449;80;21019;-74
2024/04/14 04:26:58;;;;;;;4.80;3.00;;;;;;;12.50;69.93;100480.63;1782616;80;20967;-75
2024/04/14 04:29:32;;;;;;;5.92;2.77;;;;;;;12.55;69.73;100478.95;1782533;80;20971;-75
2024/04/14 04:31:57;;;;;;;5.28;2.92;;;;;;;12.60;69.61;100478.33;1781692;80;21047;-77
2024/04/14 04:34:26;;;;;;;4.83;3.10;;;;;;;12.64;69.41;100472.20;1782242;80;21097;-76
2024/04/14 04:36:54;;;;;;;6.28;3.10;;;;;;;12.70;69.18;100474.11;1782592;80;21154;-75
2024/04/14 04:39:23;;;;;;;6.22;2.90;;;;;;;12.77;68.90;100474.64;1779908;80;21066;-74
2024/04/14 04:41:51;;;;;;;4.67;2.60;;;;;;;12.80;68.58;100468.19;1776942;80;20987;-76
2024/04/14 04:44:20;;;;;;;7.62;2.80;;;;;;;12.85;68.17;100466.19;1776727;81;21445;-75
2024/04/14 04:46:49;;;;;;;5.95;2.72;;;;;;;12.88;67.86;100469.36;1776935;80;20967;-76
2024/04/14 04:49:17;;;;;;;8.33;2.55;;;;;;;12.94;67.48;100459.42;1776785;81;20995;-74
2024/04/14 04:51:46;;;;;;;4.95;3.02;;;;;;;12.99;67.09;100452.75;1776884;81;21007;-75
2024/04/14 04:54:14;;;;;;;5.53;2.52;;;;;;;13.07;66.65;100451.72;1776697;81;21027;-74
2024/04/14 04:56:43;;;;;;;3.62;2.50;;;;;;;13.14;66.37;100445.68;1776798;80;21058;-76
2024/04/14 04:59:11;;;;;;;6.80;2.55;;;;;;;13.23;65.69;100449.94;1776842;80;20984;-76
2024/04/14 05:01:39;;;;;;;4.30;2.20;;;;;;;13.26;65.09;100439.88;1776779;81;20984;-76
2024/04/14 05:04:08;;;;;;;4.33;2.05;;;;;;;13.29;64.86;100434.79;1776704;81;21423;-77
2024/04/14 05:06:37;;;;;;;2.50;1.72;;;;;;;13.36;64.42;100438.06;1776788;81;20979;-75
2024/04/14 05:09:05;;;;;;;3.65;2.20;;;;;;;13.39;63.88;100441.23;1777019;81;20983;-76
2024/04/14 05:11:34;;;;;;;4.72;2.05;;;;;;;13.43;63.46;100445.23;1776725;80;21126;-77
2024/04/14 05:14:02;;;;;;;2.40;1.82;;;;;;;13.47;63.16;100439.62;1744956;81;20991;-75
2024/04/14 05:16:32;;;;;;;4.30;2.40;;;;;;;13.51;62.82;100447.76;1776806;81;21411;-75
2024/04/14 05:19:00;;;;;;;4.25;1.95;;;;;;;13.56;62.62;100443.83;1776763;81;21520;-74
2024/04/14 05:21:29;;;;;;;3.17;1.77;;;;;;;13.61;62.49;100442.64;1776936;80;21003;-75
2024/04/14 05:23:58;;;;;;;3.08;2.10;;;;;;;13.68;62.27;100447.31;1777007;81;21027;-76
2024/04/14 05:26:27;;;;;;;4.05;1.90;;;;;;;13.72;62.07;100442.53;1776708;80;21395;-73
2024/04/14 05:28:55;;;;;;;2.95;1.75;;;;;;;13.79;61.84;100439.76;1776966;81;21461;-75
2024/04/14 05:31:24;;;;;;;4.12;1.90;;;;;;;13.84;61.40;100431.69;1776879;80;21007;-76
2024/04/14 05:33:56;;;;;;;4.83;2.12;;;;;;;13.88;61.15;100432.94;1755637;81;21221;-74
2024/04/14 05:36:23;;;;;;;3.87;1.95;;;;;;;13.91;61.12;100433.88;1776752;81;21012;-76
2024/04/14 05:38:52;;;;;;;3.40;1.90;;;;;;;13.94;60.87;100423.80;1777289;80;20972;-77
2024/04/14 05:41:21;;;;;;;5.22;2.12;;;;;;;13.98;60.76;100430.56;1782840;80;21074;-76
2024/04/14 05:43:49;;;;;;;4.53;2.22;;;;;;;14.00;60.59;100428.43;1760738;80;20979;-76
2024/04/14 05:46:17;;;;;;;4.50;2.60;;;;;;;14.01;60.42;100423.23;1782608;80;21079;-77
2024/04/14 05:48:45;;;;;;;4.62;2.40;;;;;;;14.06;60.43;100428.09;1782576;80;21015;-76
2024/04/14 05:51:14;;;;;;;5.30;3.05;;;;;;;14.09;60.34;100425.73;1782425;80;20999;-75
2024/04/14 05:53:42;;;;;;;7.33;2.90;;;;;;;14.15;60.44;100433.66;1782450;80;21019;-76
2024/04/14 05:56:12;;;;;;;8.13;3.30;;;;;;;14.18;60.36;100427.17;1782687;80;21497;-76
2024/04/14 05:58:41;;;;;;;9.80;4.10;;;;;;;14.24;60.38;100426.28;1782679;80;21034;-75
2024/04/14 06:01:09;;;;;;;12.47;4.67;;;;;;;14.32;60.16;100424.36;1761196;80;21015;-74
2024/04/14 06:03:38;;;;;;;10.68;4.40;;;;;;;14.39;60.22;100430.68;1782542;80;21011;-76
2024/04/14 06:06:07;;;;;;;15.25;5.37;;;;;;;14.45;60.04;100427.91;1782694;80;21061;-76
2024/04/14 06:08:36;;;;;;;18.15;5.92;;;;;;;14.52;59.74;100421.81;1782437;80;21454;-76
2024/04/14 06:11:05;;;;;;;21.12;6.28;;;;;;;14.57;59.57;100414.25;1782464;80;21467;-75
2024/04/14 06:13:33;;;;;;;9.88;3.60;;;;;;;14.65;59.46;100413.14;1782811;80;21395;-75
2024/04/14 06:16:02;;;;;;;9.05;3.50;;;;;;;14.73;59.04;100411.48;1782525;80;20967;-75
2024/04/14 06:18:30;;;;;;;9.30;3.40;;;;;;;14.80;58.70;100413.65;1761017;80;21455;-74
2024/04/14 06:21:00;;;;;;;9.35;3.50;;;;;;;14.85;58.36;100414.66;1782456;80;21070;-75
2024/04/14 06:23:29;;;;;;;10.23;3.70;;;;;;;14.91;58.20;100404.63;1761095;80;21042;-73
2024/04/14 06:25:57;;;;;;;10.23;3.80;;;;;;;14.95;57.96;100403.64;1782428;80;21001;-74
2024/04/14 06:28:25;;;;;;;12.75;4.17;;;;;;;14.98;57.88;100408.75;1782533;80;21018;-76
2024/04/14 06:30:54;;;;;;;12.75;4.92;;;;;;;15.06;57.59;100412.59;1763359;81;21962;-75
2024/04/14 06:33:22;;;;;;;13.75;5.00;;;;;;;15.12;57.42;100403.41;1744128;81;21035;-76
2024/04/14 06:35:54;;;;;;;13.72;4.85;;;;;;;15.19;57.06;100399.51;1763392;81;21051;-75
2024/04/14 06:38:23;;;;;;;12.63;4.35;;;;;;;15.26;56.75;100398.59;1763497;81;21039;-77
2024/04/14 06:40:51;;;;;;;9.93;3.58;;;;;;;15.29;56.58;100395.38;1724825;82;21071;-76
2024/04/14 06:43:19;;;;;;;10.35;4.03;;;;;;;15.32;56.15;100391.62;1776698;80;20991;-76
2024/04/14 06:45:53;;;;;;;12.47;4.20;;;;;;;15.36;56.36;100392.85;1776563;80;21027;-76
2024/04/14 06:48:22;;;;;;;8.28;3.50;;;;;;;15.42;56.48;100389.17;1776713;80;21035;-76
2024/04/14 06:50:50;;;;;;;7.95;3.30;;;;;;;15.48;56.15;100381.88;1776966;81;21030;-77
2024/04/14 06:53:21;;;;;;;8.58;3.98;;;;;;;15.53;56.07;100380.66;1776641;81;21031;-77
2024/04/14 06:55:50;;;;;;;10.70;3.20;;;;;;;15.57;55.95;100389.32;1776737;80;21003;-77
2024/04/14 06:58:19;;;;;;;5.08;2.60;;;;;;;15.66;55.92;100400.44;1776674;81;21449;-76
2024/04/14 07:00:48;;;;;;;5.47;2.25;;;;;;;15.72;55.99;100386.53;1777471;81;21050;-75
2024/04/14 07:03:16;;;;;;;9.48;3.17;;;;;;;15.83;55.86;100389.05;1777281;80;21027;-77
2024/04/14 07:05:44;;;;;;;11.20;4.00;;;;;;;15.93;55.73;100384.36;1776989;80;21077;-77
2024/04/14 07:08:13;;;;;;;9.03;3.95;;;;;;;16.04;55.27;100384.95;1755494;80;21027;-75
2024/04/14 07:10:41;;;;;;;7.53;3.45;;;;;;;16.12;54.91;100379.09;1728479;81;20999;-76
2024/04/14 07:13:11;;;;;;;6.37;3.35;;;;;;;16.19;54.65;100385.37;1776822;81;21011;-78
2024/04/14 07:15:39;;;;;;;5.10;2.60;;;;;;;16.27;54.28;100385.06;1776769;81;21030;-74
2024/04/14 07:18:08;;;;;;;3.70;2.00;;;;;;;16.33;54.00;100384.12;1728329;81;21034;-76
2024/04/14 07:20:38;;;;;;;3.60;1.98;;;;;;;16.39;53.87;100380.95;1755672;80;21035;-74
2024/04/14 07:23:07;;;;;;;4.60;1.95;;;;;;;16.43;53.75;100375.25;1776881;81;21015;-77
2024/04/14 07:25:36;;;;;;;4.83;2.02;;;;;;;16.46;53.47;100370.09;1776859;81;21066;-76
2024/04/14 07:28:05;;;;;;;6.85;2.10;;;;;;;16.45;53.44;100370.33;1755623;80;20979;-76
2024/04/14 07:30:34;;;;;;;4.25;2.00;;;;;;;16.53;53.39;100376.05;1776802;81;20959;-76
2024/04/14 07:33:02;;;;;;;5.15;2.42;;;;;;;16.67;53.33;100371.48;1776858;81;20995;-77
2024/04/14 07:35:31;;;;;;;6.22;3.05;;;;;;;16.85;53.17;100361.39;1777001;81;20983;-76
2024/04/14 07:37:59;;;;;;;7.40;3.20;;;;;;;17.07;52.60;100369.42;1745113;81;20964;-77
2024/04/14 07:40:28;;;;;;;3.30;2.37;;;;;;;17.26;52.48;100370.98;1762089;80;21066;-76
2024/04/14 07:42:57;;;;;;;6.92;2.90;;;;;;;17.51;51.77;100366.55;1750016;81;21544;-77
2024/04/14 07:45:25;;;;;;;4.08;2.47;;;;;;;17.76;50.82;100363.53;1750044;80;21058;-77
2024/04/14 07:47:54;;;;;;;11.03;2.87;;;;;;;18.05;50.32;100357.45;1750129;82;21038;-77
2024/04/14 07:50:23;;;;;;;4.05;2.45;;;;;;;18.27;49.97;100359.84;1728875;82;21173;-77
2024/04/14 07:52:51;;;;;;;4.37;2.65;;;;;;;18.50;49.46;100349.16;1763116;80;21040;-77
2024/04/14 07:55:20;;;;;;;5.55;2.30;;;;;;;18.72;49.29;100346.50;1711039;83;20993;-79
2024/04/14 07:57:49;;;;;;;4.30;2.58;;;;;;;18.96;48.86;100331.37;1748253;82;21018;-74
2024/04/14 08:00:17;;;;;;;4.65;2.50;;;;;;;19.19;49.54;100335.86;1747889;82;21025;-74
2024/04/14 08:02:46;;;;;;;7.12;2.72;;;;;;;19.43;48.72;100328.69;1709470;84;21021;-75
2024/04/14 08:05:15;;;;;;;6.00;2.35;;;;;;;19.78;48.28;100329.19;1747990;81;21045;-74
2024/04/14 08:07:45;;;;;;;5.65;2.90;;;;;;;20.09;47.87;100325.36;1747968;82;21073;-73
2024/04/14 08:10:16;;;;;;;9.58;7.95;;;;;;;20.39;47.29;100324.33;1667556;85;21077;-71
2024/04/14 08:12:45;;;;;;;4.90;2.90;;;;;;;20.70;45.98;100316.23;1652797;86;21084;-77
2024/04/14 08:15:13;;;;;;;5.10;2.70;;;;;;;20.91;45.15;100318.64;1667352;86;21054;-75
2024/04/14 08:17:42;;;;;;;3.75;2.58;;;;;;;21.12;44.50;100316.27;1667455;85;21546;-76
2024/04/14 08:20:11;;;;;;;26.93;10.15;;;;;;;21.27;43.83;100311.37;1652962;86;21076;-78
2024/04/14 08:22:40;;;;;;;7.10;3.12;;;;;;;21.29;43.21;100314.73;1667630;85;21616;-75
2024/04/14 08:25:08;;;;;;;4.45;2.67;;;;;;;21.23;43.58;100311.08;1646074;86;21073;-74
2024/04/14 08:27:37;;;;;;;4.58;2.22;;;;;;;21.29;43.48;100309.16;1658804;85;21072;-79
2024/04/14 08:30:07;;;;;;;8.58;2.77;;;;;;;21.27;43.49;100297.44;1623248;87;21124;-83
2024/04/14 08:32:35;;;;;;;5.30;2.60;;;;;;;21.33;43.50;100294.41;1658809;86;21060;-78
2024/04/14 08:35:05;;;;;;;6.80;2.55;;;;;;;21.47;43.30;100283.63;1670481;83;21680;-74
2024/04/14 08:37:34;;;;;;;5.22;2.33;;;;;;;21.58;42.94;100284.50;1738072;82;21056;-74
2024/04/14 08:40:02;;;;;;;5.95;2.33;;;;;;;21.64;42.61;100285.64;1738619;81;21079;-79
2024/04/14 08:42:32;;;;;;;5.85;2.42;;;;;;;21.72;42.59;100282.32;1756771;80;21107;-77
2024/04/14 08:45:01;;;;;;;5.42;2.72;;;;;;;21.79;42.15;100276.48;1740645;81;21049;-75
2024/04/14 08:47:29;;;;;;;4.10;2.10;;;;;;;21.74;41.77;100272.28;1756509;80;21048;-77
2024/04/14 08:50:00;;;;;;;5.37;2.22;;;;;;;21.55;42.06;100284.49;1740437;82;21049;-77
2024/04/14 08:52:29;;;;;;;3.55;2.20;;;;;;;21.47;42.43;100269.69;1756375;81;21067;-75
2024/04/14 08:54:58;;;;;;;3.80;2.10;;;;;;;21.54;42.40;100273.06;1739994;82;21064;-69
2024/04/14 08:57:26;;;;;;;4.85;2.10;;;;;;;21.56;41.96;100272.23;1721855;82;21060;-70
2024/04/14 08:59:58;;;;;;;4.80;2.37;;;;;;;21.43;41.98;100258.21;1744204;82;21019;-70
2024/04/14 09:02:28;;;;;;;3.33;2.50;;;;;;;21.27;42.28;100248.66;1753995;81;21059;-71
2024/04/14 09:04:57;;;;;;;7.65;2.20;;;;;;;21.09;42.91;100244.37;1765454;81;21065;-68
2024/04/14 09:07:25;;;;;;;3.42;2.67;;;;;;;21.00;43.14;100237.64;1766330;81;21450;-70
2024/04/14 09:09:54;;;;;;;11.53;3.90;;;;;;;20.98;43.42;100227.33;1745348;81;21045;-69
2024/04/14 09:12:24;;;;;;;5.22;3.10;;;;;;;21.00;43.68;100224.55;1766368;81;21025;-69
2024/04/14 09:14:52;;;;;;;3.58;2.62;;;;;;;21.07;43.58;100222.36;1766540;80;21021;-68
2024/04/14 09:17:22;;;;;;;6.97;2.83;;;;;;;21.14;43.40;100218.77;1766276;81;21017;-70
2024/04/14 09:19:50;;;;;;;5.85;3.08;;;;;;;21.17;43.51;100211.25;1766269;81;21021;-68
2024/04/14 09:22:19;;;;;;;3.45;2.45;;;;;;;21.18;43.51;100214.88;1766440;81;22040;-70
2024/04/14 09:24:48;;;;;;;4.30;2.70;;;;;;;21.18;43.39;100214.88;1766350;81;21068;-69
2024/04/14 09:27:18;;;;;;;4.47;2.90;;;;;;;21.11;43.53;100210.95;1795861;79;21021;-76
2024/04/14 09:29:47;;;;;;;5.35;3.27;;;;;;;21.07;43.39;100204.25;1766451;81;21021;-73
2024/04/14 09:32:16;;;;;;;11.05;3.50;;;;;;;21.04;43.32;100203.95;1766754;81;21013;-73
2024/04/14 09:34:44;;;;;;;7.03;3.20;;;;;;;20.98;43.59;100204.48;1766289;80;21547;-73
2024/04/14 09:37:14;;;;;;;5.47;3.65;;;;;;;20.92;44.01;100197.21;1766471;81;21040;-72
2024/04/14 09:39:42;;;;;;;8.83;3.72;;;;;;;20.89;44.31;100191.62;1766412;81;21072;-72
2024/04/14 09:42:11;;;;;;;8.60;3.20;;;;;;;20.92;44.29;100187.46;1758175;81;21090;-72
2024/04/14 09:44:39;;;;;;;7.10;3.55;;;;;;;20.90;44.25;100179.94;1753159;82;21042;-73
2024/04/14 09:47:08;;;;;;;8.05;3.67;;;;;;;20.90;44.38;100181.33;1730077;82;21022;-75
2024/04/14 09:49:37;;;;;;;7.28;3.85;;;;;;;20.92;44.38;100169.91;1753436;80;20983;-76
2024/04/14 09:52:05;;;;;;;5.78;3.75;;;;;;;20.87;44.43;100177.14;1753258;82;21560;-74
2024/04/14 09:54:34;;;;;;;5.90;3.77;;;;;;;20.79;44.75;100172.61;1752972;82;21485;-74
2024/04/14 09:57:03;;;;;;;7.75;4.17;;;;;;;20.74;44.87;100162.27;1753305;82;21050;-75
2024/04/14 09:59:31;;;;;;;8.93;3.67;;;;;;;20.76;45.00;100163.40;1769069;79;20987;-78
2024/04/14 10:02:00;;;;;;;4.25;3.42;;;;;;;20.77;45.10;100160.90;1802870;79;21012;-76
2024/04/14 10:04:29;;;;;;;6.72;4.35;;;;;;;20.74;45.31;100151.14;1803006;79;21075;-77
2024/04/14 10:06:57;;;;;;;10.15;4.47;;;;;;;20.71;45.41;100155.02;1803041;79;21067;-79
2024/04/14 10:09:26;;;;;;;10.10;3.92;;;;;;;20.72;45.55;100155.30;1802903;79;21051;-79
2024/04/14 10:11:54;;;;;;;7.83;4.05;;;;;;;20.73;45.41;100142.50;1780890;79;21103;-79
2024/04/14 10:14:26;;;;;;;8.05;3.85;;;;;;;20.72;45.38;100140.83;1803127;79;21039;-79
2024/04/14 10:16:56;;;;;;;5.85;3.75;;;;;;;20.65;45.36;100128.26;1781274;79;21105;-78
2024/04/14 10:19:25;;;;;;;13.30;4.72;;;;;;;20.58;45.77;100129.89;1802777;79;21039;-75
2024/04/14 10:22:08;;;;;;;8.30;3.98;;;;;;;20.63;45.93;100133.27;1803104;79;21023;-78
2024/04/14 10:24:47;;;;;;;6.60;4.17;;;;;;;20.69;45.98;100123.83;1802751;79;21471;-78
2024/04/14 10:27:16;;;;;;;6.45;3.90;;;;;;;20.76;45.94;100125.81;1803097;79;21054;-78
2024/04/14 10:30:00;;;;;;;7.40;4.70;;;;;;;20.82;45.54;100113.61;1802794;79;21067;-78
2024/04/14 10:32:29;;;;;;;10.18;4.28;;;;;;;20.84;45.41;100112.23;1803022;79;21016;-76
2024/04/14 10:34:58;;;;;;;7.40;4.15;;;;;;;20.82;45.13;100103.86;1802952;78;21488;-77
2024/04/14 10:37:27;;;;;;;7.50;4.15;;;;;;;20.78;45.11;100095.74;1803089;79;21031;-77
2024/04/14 10:39:56;;;;;;;6.72;3.87;;;;;;;20.76;45.13;100086.27;1802882;79;21447;-77
2024/04/14 10:42:24;;;;;;;10.88;4.72;;;;;;;20.75;45.38;100077.63;1808084;79;21074;-79
2024/04/14 10:44:53;;;;;;;8.90;4.40;;;;;;;20.81;45.19;100074.34;1811684;79;21039;-78
2024/04/14 10:47:21;;;;;;;7.10;3.80;;;;;;;20.80;45.00;100068.46;1811926;79;21050;-78
2024/04/14 10:49:52;;;;;;;6.85;4.20;;;;;;;20.79;45.20;100064.00;1811931;79;21031;-80
2024/04/14 10:52:20;;;;;;;5.53;4.28;;;;;;;20.81;44.76;100061.25;1812798;79;21068;-76
2024/04/14 10:54:50;;;;;;;10.80;4.42;;;;;;;20.85;44.33;100061.55;1812339;79;21003;-77
2024/04/14 10:57:24;;;;;;;5.50;4.17;;;;;;;20.84;44.06;100055.70;1811759;79;21462;-79
2024/04/14 10:59:52;;;;;;;8.78;3.90;;;;;;;20.78;43.72;100050.63;1814363;79;20979;-78
2024/04/14 11:02:21;;;;;;;4.47;3.60;;;;;;;20.73;43.71;100037.25;1794871;79;21054;-78
2024/04/14 11:04:49;;;;;;;8.65;4.03;;;;;;;20.70;43.87;100034.45;1794968;79;21058;-78
2024/04/14 11:07:18;;;;;;;6.92;3.55;;;;;;;20.68;43.81;100034.45;1817197;79;21043;-79
2024/04/14 11:09:50;;;;;;;7.62;3.80;;;;;;;20.68;43.39;100013.56;1817353;79;21073;-78
2024/04/14 11:12:20;;;;;;;8.58;4.15;;;;;;;20.69;43.36;100009.67;1817256;79;21094;-77
2024/04/14 11:14:48;;;;;;;7.45;3.85;;;;;;;20.74;43.63;100002.73;1794932;78;21466;-79
2024/04/14 11:17:18;;;;;;;5.85;3.70;;;;;;;20.77;42.88;100010.53;1817335;79;21072;-76
2024/04/14 11:19:47;;;;;;;6.55;3.70;;;;;;;20.81;43.07;100003.33;1817204;79;21042;-77
2024/04/14 11:22:20;;;;;;;6.22;3.47;;;;;;;20.85;42.98;99981.62;1817184;79;21019;-77
2024/04/14 11:24:52;;;;;;;10.30;3.70;;;;;;;20.92;42.41;99993.05;1817054;79;21050;-77
2024/04/14 11:27:23;;;;;;;6.35;3.12;;;;;;;20.98;42.23;99990.00;1817081;79;21104;-75
2024/04/14 11:29:52;;;;;;;5.60;3.40;;;;;;;21.04;42.79;99973.56;1817204;79;21531;-71
2024/04/14 11:32:35;;;;;;;9.73;3.58;;;;;;;21.10;42.69;99973.84;1817163;79;21011;-72